sensor_id;sensor_type;location;lat;lon;timestamp;pressure;altitude;pressure_sealevel;temperature;humidity
19596;BME280;9945;46.010;8.946;2023-04-25T00:00:18;96395.25;;;14.83;38.76
19596;BME280;9945;46.010;8.946;2023-04-25T00:02:45;96398.47;;;14.79;41.03
19596;BME280;9945;46.010;8.946;2023-04-25T00:05:12;96396.00;;;14.70;41.46
19596;BME280;9945;46.010;8.946;2023-04-25T00:07:40;96409.06;;;14.85;39.68
19596;BME280;9945;46.010;8.946;2023-04-25T00:10:09;96408.44;;;14.83;37.70
19596;BME280;9945;46.010;8.946;2023-04-25T00:12:36;96414.44;;;14.70;36.34
19596;BME280;9945;46.010;8.946;2023-04-25T00:15:05;96399.91;;;14.81;34.84
19596;BME280;9945;46.010;8.946;2023-04-25T00:17:33;96403.53;;;14.80;34.22
19596;BME280;9945;46.010;8.946;2023-04-25T00:20:01;96398.97;;;14.95;32.73
19596;BME280;9945;46.010;8.946;2023-04-25T00:22:30;96409.91;;;14.92;34.85
19596;BME280;9945;46.010;8.946;2023-04-25T00:24:57;96405.94;;;15.16;38.13
19596;BME280;9945;46.010;8.946;2023-04-25T00:27:25;96407.78;;;15.15;39.60
19596;BME280;9945;46.010;8.946;2023-04-25T00:29:52;96410.81;;;14.71;44.40
19596;BME280;9945;46.010;8.946;2023-04-25T00:32:19;96417.38;;;14.54;46.94
19596;BME280;9945;46.010;8.946;2023-04-25T00:34:47;96417.75;;;14.30;49.58
19596;BME280;9945;46.010;8.946;2023-04-25T00:37:14;96415.09;;;14.23;51.02
19596;BME280;9945;46.010;8.946;2023-04-25T00:39:41;96416.41;;;14.13;50.21
19596;BME280;9945;46.010;8.946;2023-04-25T00:42:08;96411.53;;;14.10;48.75
19596;BME280;9945;46.010;8.946;2023-04-25T00:44:35;96408.28;;;14.08;48.52
19596;BME280;9945;46.010;8.946;2023-04-25T00:47:02;96406.00;;;14.05;46.49
19596;BME280;9945;46.010;8.946;2023-04-25T00:49:29;96403.56;;;14.24;47.16
19596;BME280;9945;46.010;8.946;2023-04-25T00:51:58;96399.28;;;14.23;47.05
19596;BME280;9945;46.010;8.946;2023-04-25T00:54:25;96413.63;;;14.21;46.16
19596;BME280;9945;46.010;8.946;2023-04-25T00:56:52;96414.34;;;14.57;44.78
19596;BME280;9945;46.010;8.946;2023-04-25T00:59:19;96411.31;;;14.54;45.34
19596;BME280;9945;46.010;8.946;2023-04-25T01:01:47;96412.31;;;14.31;46.44
19596;BME280;9945;46.010;8.946;2023-04-25T01:04:13;96411.53;;;14.37;46.71
19596;BME280;9945;46.010;8.946;2023-04-25T01:06:40;96401.09;;;14.23;47.81
19596;BME280;9945;46.010;8.946;2023-04-25T01:09:09;96395.16;;;14.14;49.08
19596;BME280;9945;46.010;8.946;2023-04-25T01:11:36;96400.56;;;14.06;50.99
19596;BME280;9945;46.010;8.946;2023-04-25T01:14:03;96404.59;;;14.02;52.44
19596;BME280;9945;46.010;8.946;2023-04-25T01:16:30;96404.59;;;14.02;52.76
19596;BME280;9945;46.010;8.946;2023-04-25T01:18:57;96405.47;;;14.09;52.66
19596;BME280;9945;46.010;8.946;2023-04-25T01:21:25;96404.88;;;14.14;53.40
19596;BME280;9945;46.010;8.946;2023-04-25T01:23:55;96410.09;;;14.07;53.97
19596;BME280;9945;46.010;8.946;2023-04-25T01:26:23;96407.78;;;14.19;52.96
19596;BME280;9945;46.010;8.946;2023-04-25T01:28:50;96416.22;;;14.14;53.14
19596;BME280;9945;46.010;8.946;2023-04-25T01:31:18;96410.53;;;14.11;53.58
19596;BME280;9945;46.010;8.946;2023-04-25T01:33:45;96404.38;;;14.03;52.59
19596;BME280;9945;46.010;8.946;2023-04-25T01:36:12;96409.28;;;14.07;51.79
19596;BME280;9945;46.010;8.946;2023-04-25T01:38:41;96408.63;;;14.05;53.01
19596;BME280;9945;46.010;8.946;2023-04-25T01:41:09;96414.84;;;13.97;53.23
19596;BME280;9945;46.010;8.946;2023-04-25T01:43:36;96408.41;;;13.99;52.86
19596;BME280;9945;46.010;8.946;2023-04-25T01:46:03;96416.53;;;14.05;52.62
19596;BME280;9945;46.010;8.946;2023-04-25T01:48:30;96413.63;;;13.93;53.60
19596;BME280;9945;46.010;8.946;2023-04-25T01:50:57;96413.22;;;13.96;53.74
19596;BME280;9945;46.010;8.946;2023-04-25T01:53:24;96406.53;;;13.93;54.74
19596;BME280;9945;46.010;8.946;2023-04-25T01:55:53;96408.72;;;13.90;52.77
19596;BME280;9945;46.010;8.946;2023-04-25T01:58:20;96413.56;;;13.86;52.44
19596;BME280;9945;46.010;8.946;2023-04-25T02:00:46;96405.72;;;13.93;52.73
19596;BME280;9945;46.010;8.946;2023-04-25T02:03:13;96400.00;;;13.89;55.27
19596;BME280;9945;46.010;8.946;2023-04-25T02:05:40;96393.84;;;14.03;54.53
19596;BME280;9945;46.010;8.946;2023-04-25T02:08:08;96387.13;;;14.22;55.11
19596;BME280;9945;46.010;8.946;2023-04-25T02:10:36;96391.00;;;14.26;54.67
19596;BME280;9945;46.010;8.946;2023-04-25T02:13:04;96389.72;;;14.16;55.22
19596;BME280;9945;46.010;8.946;2023-04-25T02:15:31;96385.03;;;14.11;55.21
19596;BME280;9945;46.010;8.946;2023-04-25T02:17:58;96383.22;;;14.12;55.01
19596;BME280;9945;46.010;8.946;2023-04-25T02:20:27;96388.16;;;14.00;54.98
19596;BME280;9945;46.010;8.946;2023-04-25T02:22:54;96391.78;;;13.99;55.90
19596;BME280;9945;46.010;8.946;2023-04-25T02:25:21;96396.28;;;14.05;55.82
19596;BME280;9945;46.010;8.946;2023-04-25T02:27:48;96398.31;;;14.03;55.38
19596;BME280;9945;46.010;8.946;2023-04-25T02:30:18;96396.88;;;14.00;55.21
19596;BME280;9945;46.010;8.946;2023-04-25T02:32:45;96402.44;;;14.12;54.70
19596;BME280;9945;46.010;8.946;2023-04-25T02:35:12;96400.69;;;14.19;52.79
19596;BME280;9945;46.010;8.946;2023-04-25T02:37:39;96402.19;;;14.07;53.42
19596;BME280;9945;46.010;8.946;2023-04-25T02:40:07;96405.00;;;14.06;52.85
19596;BME280;9945;46.010;8.946;2023-04-25T02:42:34;96403.81;;;14.08;53.16
19596;BME280;9945;46.010;8.946;2023-04-25T02:45:02;96404.41;;;14.31;52.03
19596;BME280;9945;46.010;8.946;2023-04-25T02:47:30;96399.72;;;14.27;52.85
19596;BME280;9945;46.010;8.946;2023-04-25T02:49:57;96390.19;;;14.26;52.78
19596;BME280;9945;46.010;8.946;2023-04-25T02:52:24;96395.66;;;14.24;54.91
19596;BME280;9945;46.010;8.946;2023-04-25T02:54:51;96389.41;;;14.04;57.05
19596;BME280;9945;46.010;8.946;2023-04-25T02:57:18;96392.28;;;13.88;58.04
19596;BME280;9945;46.010;8.946;2023-04-25T02:59:45;96389.53;;;13.96;57.46
19596;BME280;9945;46.010;8.946;2023-04-25T03:02:12;96380.03;;;13.95;58.07
19596;BME280;9945;46.010;8.946;2023-04-25T03:04:40;96377.47;;;13.80;57.50
19596;BME280;9945;46.010;8.946;2023-04-25T03:07:07;96382.22;;;13.70;57.06
19596;BME280;9945;46.010;8.946;2023-04-25T03:09:34;96377.75;;;13.71;57.17
19596;BME280;9945;46.010;8.946;2023-04-25T03:12:01;96379.91;;;13.60;56.79
19596;BME280;9945;46.010;8.946;2023-04-25T03:14:28;96378.41;;;13.51;57.30
19596;BME280;9945;46.010;8.946;2023-04-25T03:16:55;96384.38;;;13.45;59.24
19596;BME280;9945;46.010;8.946;2023-04-25T03:19:21;96386.78;;;13.40;59.11
19596;BME280;9945;46.010;8.946;2023-04-25T03:21:50;96379.78;;;13.47;59.38
19596;BME280;9945;46.010;8.946;2023-04-25T03:24:17;96377.31;;;13.46;58.80
19596;BME280;9945;46.010;8.946;2023-04-25T03:26:43;96382.41;;;13.47;56.10
19596;BME280;9945;46.010;8.946;2023-04-25T03:29:10;96381.53;;;13.61;56.46
19596;BME280;9945;46.010;8.946;2023-04-25T03:31:38;96384.38;;;13.60;55.69
19596;BME280;9945;46.010;8.946;2023-04-25T03:34:04;96382.50;;;13.39;55.31
19596;BME280;9945;46.010;8.946;2023-04-25T03:36:31;96383.81;;;13.29;56.86
19596;BME280;9945;46.010;8.946;2023-04-25T03:39:00;96379.28;;;13.22;56.67
19596;BME280;9945;46.010;8.946;2023-04-25T03:41:27;96381.88;;;13.37;57.11
19596;BME280;9945;46.010;8.946;2023-04-25T03:43:55;96376.59;;;13.16;60.70
19596;BME280;9945;46.010;8.946;2023-04-25T03:46:22;96382.16;;;13.27;60.82
19596;BME280;9945;46.010;8.946;2023-04-25T03:48:48;96372.41;;;13.07;61.30
19596;BME280;9945;46.010;8.946;2023-04-25T03:51:15;96376.69;;;13.08;61.81
19596;BME280;9945;46.010;8.946;2023-04-25T03:53:42;96377.84;;;13.05;62.14
19596;BME280;9945;46.010;8.946;2023-04-25T03:56:10;96379.13;;;12.95;63.41
19596;BME280;9945;46.010;8.946;2023-04-25T03:58:37;96371.72;;;12.98;61.50
19596;BME280;9945;46.010;8.946;2023-04-25T04:01:04;96374.16;;;13.00;63.30
19596;BME280;9945;46.010;8.946;2023-04-25T04:03:33;96371.34;;;12.86;63.84
19596;BME280;9945;46.010;8.946;2023-04-25T04:06:01;96372.41;;;13.07;62.72
19596;BME280;9945;46.010;8.946;2023-04-25T04:08:29;96363.28;;;12.88;63.15
19596;BME280;9945;46.010;8.946;2023-04-25T04:10:56;96370.44;;;12.94;62.97
19596;BME280;9945;46.010;8.946;2023-04-25T04:13:25;96369.28;;;12.82;64.23
19596;BME280;9945;46.010;8.946;2023-04-25T04:15:52;96369.81;;;12.77;65.12
19596;BME280;9945;46.010;8.946;2023-04-25T04:18:19;96370.47;;;12.65;66.68
19596;BME280;9945;46.010;8.946;2023-04-25T04:20:46;96371.84;;;12.75;64.74
19596;BME280;9945;46.010;8.946;2023-04-25T04:23:12;96372.09;;;12.66;66.48
19596;BME280;9945;46.010;8.946;2023-04-25T04:25:39;96375.34;;;12.68;66.30
19596;BME280;9945;46.010;8.946;2023-04-25T04:28:07;96373.91;;;12.65;64.91
19596;BME280;9945;46.010;8.946;2023-04-25T04:30:35;96380.97;;;12.65;64.63
19596;BME280;9945;46.010;8.946;2023-04-25T04:33:03;96387.56;;;12.61;65.70
19596;BME280;9945;46.010;8.946;2023-04-25T04:35:29;96384.75;;;12.77;63.64
19596;BME280;9945;46.010;8.946;2023-04-25T04:37:56;96392.84;;;12.75;61.98
19596;BME280;9945;46.010;8.946;2023-04-25T04:40:23;96398.72;;;12.77;62.51
19596;BME280;9945;46.010;8.946;2023-04-25T04:42:51;96391.91;;;12.68;62.53
19596;BME280;9945;46.010;8.946;2023-04-25T04:45:18;96398.88;;;12.46;64.54
19596;BME280;9945;46.010;8.946;2023-04-25T04:47:47;96392.09;;;12.52;63.31
19596;BME280;9945;46.010;8.946;2023-04-25T04:50:14;96401.69;;;12.45;64.13
19596;BME280;9945;46.010;8.946;2023-04-25T04:52:42;96392.66;;;12.47;63.90
19596;BME280;9945;46.010;8.946;2023-04-25T04:55:09;96393.09;;;12.51;63.39
19596;BME280;9945;46.010;8.946;2023-04-25T04:57:36;96399.06;;;12.45;62.72
19596;BME280;9945;46.010;8.946;2023-04-25T05:00:06;96402.50;;;12.45;63.29
19596;BME280;9945;46.010;8.946;2023-04-25T05:02:36;96395.72;;;12.51;61.04
19596;BME280;9945;46.010;8.946;2023-04-25T05:05:05;96399.09;;;12.74;60.70
19596;BME280;9945;46.010;8.946;2023-04-25T05:07:33;96399.63;;;12.70;60.14
19596;BME280;9945;46.010;8.946;2023-04-25T05:09:59;96391.47;;;12.65;61.10
19596;BME280;9945;46.010;8.946;2023-04-25T05:12:26;96394.91;;;12.65;61.87
19596;BME280;9945;46.010;8.946;2023-04-25T05:14:53;96403.34;;;12.75;60.13
19596;BME280;9945;46.010;8.946;2023-04-25T05:17:20;96404.59;;;12.79;59.21
19596;BME280;9945;46.010;8.946;2023-04-25T05:19:47;96405.78;;;12.77;60.47
19596;BME280;9945;46.010;8.946;2023-04-25T05:22:15;96403.34;;;12.75;59.13
19596;BME280;9945;46.010;8.946;2023-04-25T05:24:42;96406.84;;;12.97;59.90
19596;BME280;9945;46.010;8.946;2023-04-25T05:27:09;96409.03;;;13.08;58.49
19596;BME280;9945;46.010;8.946;2023-04-25T05:29:36;96404.22;;;12.97;59.03
19596;BME280;9945;46.010;8.946;2023-04-25T05:32:03;96399.78;;;12.98;58.50
19596;BME280;9945;46.010;8.946;2023-04-25T05:34:30;96405.69;;;13.00;58.45
19596;BME280;9945;46.010;8.946;2023-04-25T05:36:57;96398.63;;;13.15;57.34
19596;BME280;9945;46.010;8.946;2023-04-25T05:39:25;96401.03;;;13.31;58.51
19596;BME280;9945;46.010;8.946;2023-04-25T05:41:52;96408.09;;;13.31;58.84
19596;BME280;9945;46.010;8.946;2023-04-25T05:44:19;96413.25;;;13.39;57.81
19596;BME280;9945;46.010;8.946;2023-04-25T05:46:46;96404.03;;;13.28;57.68
19596;BME280;9945;46.010;8.946;2023-04-25T05:49:13;96403.78;;;13.44;57.00
19596;BME280;9945;46.010;8.946;2023-04-25T05:51:40;96407.53;;;13.50;56.33
19596;BME280;9945;46.010;8.946;2023-04-25T05:54:07;96413.25;;;13.75;55.52
19596;BME280;9945;46.010;8.946;2023-04-25T05:56:35;96418.03;;;13.71;53.54
19596;BME280;9945;46.010;8.946;2023-04-25T05:59:02;96421.25;;;13.67;53.48
19596;BME280;9945;46.010;8.946;2023-04-25T06:01:29;96425.44;;;13.82;54.50
19596;BME280;9945;46.010;8.946;2023-04-25T06:03:55;96423.50;;;13.91;53.02
19596;BME280;9945;46.010;8.946;2023-04-25T06:06:23;96429.91;;;14.03;53.11
19596;BME280;9945;46.010;8.946;2023-04-25T06:08:50;96425.19;;;14.20;52.41
19596;BME280;9945;46.010;8.946;2023-04-25T06:11:17;96415.72;;;14.25;50.10
19596;BME280;9945;46.010;8.946;2023-04-25T06:13:45;96421.72;;;14.41;47.27
19596;BME280;9945;46.010;8.946;2023-04-25T06:16:12;96408.03;;;14.52;46.28
19596;BME280;9945;46.010;8.946;2023-04-25T06:18:40;96404.94;;;14.76;47.59
19596;BME280;9945;46.010;8.946;2023-04-25T06:21:06;96399.44;;;15.05;48.61
19596;BME280;9945;46.010;8.946;2023-04-25T06:23:33;96401.94;;;15.20;47.42
19596;BME280;9945;46.010;8.946;2023-04-25T06:26:00;96401.31;;;15.25;46.17
19596;BME280;9945;46.010;8.946;2023-04-25T06:28:27;96409.50;;;15.36;45.72
19596;BME280;9945;46.010;8.946;2023-04-25T06:30:55;96403.59;;;15.41;45.36
19596;BME280;9945;46.010;8.946;2023-04-25T06:33:22;96400.06;;;15.68;44.32
19596;BME280;9945;46.010;8.946;2023-04-25T06:35:49;96407.84;;;16.22;44.47
19596;BME280;9945;46.010;8.946;2023-04-25T06:38:16;96397.31;;;17.26;41.35
19596;BME280;9945;46.010;8.946;2023-04-25T06:40:43;96403.00;;;18.56;39.02
19596;BME280;9945;46.010;8.946;2023-04-25T06:43:10;96402.44;;;19.81;36.97
19596;BME280;9945;46.010;8.946;2023-04-25T06:45:37;96408.63;;;20.82;33.71
19596;BME280;9945;46.010;8.946;2023-04-25T06:48:05;96410.84;;;21.48;33.49
19596;BME280;9945;46.010;8.946;2023-04-25T06:50:33;96414.94;;;21.96;32.35
19596;BME280;9945;46.010;8.946;2023-04-25T06:53:00;96408.50;;;22.37;32.65
19596;BME280;9945;46.010;8.946;2023-04-25T06:55:27;96409.94;;;22.61;32.03
19596;BME280;9945;46.010;8.946;2023-04-25T06:57:54;96413.66;;;22.93;32.91
19596;BME280;9945;46.010;8.946;2023-04-25T07:00:21;96409.34;;;23.09;33.13
19596;BME280;9945;46.010;8.946;2023-04-25T07:02:48;96399.06;;;23.23;33.38
19596;BME280;9945;46.010;8.946;2023-04-25T07:05:17;96401.06;;;23.11;34.51
19596;BME280;9945;46.010;8.946;2023-04-25T07:07:43;96405.22;;;23.01;34.14
19596;BME280;9945;46.010;8.946;2023-04-25T07:10:10;96413.56;;;22.88;34.29
19596;BME280;9945;46.010;8.946;2023-04-25T07:12:37;96407.28;;;22.27;35.49
19596;BME280;9945;46.010;8.946;2023-04-25T07:15:05;96408.63;;;21.85;35.88
19596;BME280;9945;46.010;8.946;2023-04-25T07:17:35;96414.47;;;21.70;36.71
19596;BME280;9945;46.010;8.946;2023-04-25T07:20:02;96412.69;;;21.59;36.94
19596;BME280;9945;46.010;8.946;2023-04-25T07:22:32;96403.13;;;21.11;36.80
19596;BME280;9945;46.010;8.946;2023-04-25T07:24:59;96414.03;;;20.87;37.34
19596;BME280;9945;46.010;8.946;2023-04-25T07:27:26;96408.13;;;20.38;38.17
19596;BME280;9945;46.010;8.946;2023-04-25T07:29:53;96410.16;;;20.13;39.17
19596;BME280;9945;46.010;8.946;2023-04-25T07:32:20;96410.22;;;19.94;38.87
19596;BME280;9945;46.010;8.946;2023-04-25T07:34:47;96400.75;;;20.10;38.43
19596;BME280;9945;46.010;8.946;2023-04-25T07:37:14;96405.59;;;19.90;37.94
19596;BME280;9945;46.010;8.946;2023-04-25T07:39:42;96396.22;;;19.87;39.54
19596;BME280;9945;46.010;8.946;2023-04-25T07:42:11;96394.84;;;19.67;40.09
19596;BME280;9945;46.010;8.946;2023-04-25T07:44:38;96382.69;;;19.41;40.82
19596;BME280;9945;46.010;8.946;2023-04-25T07:47:05;96389.28;;;19.38;39.56
19596;BME280;9945;46.010;8.946;2023-04-25T07:49:33;96390.78;;;19.16;40.07
19596;BME280;9945;46.010;8.946;2023-04-25T07:52:00;96392.91;;;19.07;41.14
19596;BME280;9945;46.010;8.946;2023-04-25T07:54:28;96397.13;;;18.97;40.22
19596;BME280;9945;46.010;8.946;2023-04-25T07:56:56;96391.28;;;19.06;39.93
19596;BME280;9945;46.010;8.946;2023-04-25T07:59:23;96392.56;;;19.22;39.29
19596;BME280;9945;46.010;8.946;2023-04-25T08:01:50;96391.34;;;19.36;39.27
19596;BME280;9945;46.010;8.946;2023-04-25T08:04:17;96389.63;;;19.42;38.85
19596;BME280;9945;46.010;8.946;2023-04-25T08:06:44;96382.19;;;19.50;38.14
19596;BME280;9945;46.010;8.946;2023-04-25T08:09:12;96386.75;;;19.61;39.02
19596;BME280;9945;46.010;8.946;2023-04-25T08:11:38;96384.88;;;19.80;37.74
19596;BME280;9945;46.010;8.946;2023-04-25T08:14:07;96384.69;;;20.05;37.41
19596;BME280;9945;46.010;8.946;2023-04-25T08:16:34;96382.84;;;20.06;37.33
19596;BME280;9945;46.010;8.946;2023-04-25T08:19:02;96380.78;;;20.19;36.86
19596;BME280;9945;46.010;8.946;2023-04-25T08:21:30;96380.22;;;20.17;36.61
19596;BME280;9945;46.010;8.946;2023-04-25T08:23:58;96386.72;;;20.33;36.32
19596;BME280;9945;46.010;8.946;2023-04-25T08:26:25;96387.50;;;20.33;36.01
19596;BME280;9945;46.010;8.946;2023-04-25T08:28:52;96377.50;;;20.47;36.23
19596;BME280;9945;46.010;8.946;2023-04-25T08:31:20;96380.38;;;20.34;35.53
19596;BME280;9945;46.010;8.946;2023-04-25T08:33:47;96385.41;;;20.12;34.27
19596;BME280;9945;46.010;8.946;2023-04-25T08:36:15;96388.66;;;20.14;35.90
19596;BME280;9945;46.010;8.946;2023-04-25T08:38:42;96388.72;;;20.37;36.11
19596;BME280;9945;46.010;8.946;2023-04-25T08:41:11;96390.94;;;20.64;36.05
19596;BME280;9945;46.010;8.946;2023-04-25T08:43:42;96395.91;;;20.72;35.34
19596;BME280;9945;46.010;8.946;2023-04-25T08:46:11;96393.94;;;20.91;35.62
19596;BME280;9945;46.010;8.946;2023-04-25T08:48:42;96387.78;;;20.90;34.84
19596;BME280;9945;46.010;8.946;2023-04-25T08:51:15;96395.16;;;21.11;34.46
19596;BME280;9945;46.010;8.946;2023-04-25T08:53:49;96384.25;;;21.36;33.97
19596;BME280;9945;46.010;8.946;2023-04-25T08:56:17;96379.97;;;21.64;30.97
19596;BME280;9945;46.010;8.946;2023-04-25T08:58:47;96382.22;;;21.83;32.59
19596;BME280;9945;46.010;8.946;2023-04-25T09:01:15;96384.38;;;22.48;31.17
19596;BME280;9945;46.010;8.946;2023-04-25T09:03:43;96388.19;;;22.69;30.82
19596;BME280;9945;46.010;8.946;2023-04-25T09:06:12;96381.75;;;23.25;30.18
19596;BME280;9945;46.010;8.946;2023-04-25T09:08:41;96379.25;;;23.40;30.13
19596;BME280;9945;46.010;8.946;2023-04-25T09:11:08;96377.78;;;23.98;30.85
19596;BME280;9945;46.010;8.946;2023-04-25T09:13:35;96384.22;;;23.32;31.48
19596;BME280;9945;46.010;8.946;2023-04-25T09:16:02;96381.84;;;23.30;32.20
19596;BME280;9945;46.010;8.946;2023-04-25T09:18:30;96383.03;;;26.64;28.18
19596;BME280;9945;46.010;8.946;2023-04-25T09:21:06;96392.00;;;28.77;24.09
19596;BME280;9945;46.010;8.946;2023-04-25T09:23:39;96397.63;;;31.02;21.45
19596;BME280;9945;46.010;8.946;2023-04-25T09:26:07;96396.81;;;33.22;20.53
19596;BME280;9945;46.010;8.946;2023-04-25T09:28:34;96397.22;;;35.65;17.43
19596;BME280;9945;46.010;8.946;2023-04-25T09:31:03;96397.34;;;38.00;14.95
19596;BME280;9945;46.010;8.946;2023-04-25T09:33:31;96391.66;;;36.74;15.35
19596;BME280;9945;46.010;8.946;2023-04-25T09:36:06;96401.81;;;36.32;15.82
19596;BME280;9945;46.010;8.946;2023-04-25T09:38:41;96399.75;;;36.62;15.28
19596;BME280;9945;46.010;8.946;2023-04-25T09:41:08;96405.09;;;37.37;14.76
19596;BME280;9945;46.010;8.946;2023-04-25T09:43:36;96402.00;;;34.15;16.54
19596;BME280;9945;46.010;8.946;2023-04-25T09:46:08;96395.25;;;31.82;18.73
19596;BME280;9945;46.010;8.946;2023-04-25T09:48:35;96385.88;;;30.28;20.67
19596;BME280;9945;46.010;8.946;2023-04-25T09:51:07;96394.88;;;29.62;21.29
19596;BME280;9945;46.010;8.946;2023-04-25T09:53:35;96400.81;;;29.35;21.60
19596;BME280;9945;46.010;8.946;2023-04-25T09:56:04;96402.56;;;28.34;22.98
19596;BME280;9945;46.010;8.946;2023-04-25T09:58:33;96398.09;;;30.76;21.15
19596;BME280;9945;46.010;8.946;2023-04-25T10:01:01;96404.41;;;34.85;16.68
19596;BME280;9945;46.010;8.946;2023-04-25T10:03:30;96407.63;;;37.78;15.61
19596;BME280;9945;46.010;8.946;2023-04-25T10:05:59;96409.81;;;36.70;15.56
19596;BME280;9945;46.010;8.946;2023-04-25T10:08:32;96397.69;;;34.23;16.40
19596;BME280;9945;46.010;8.946;2023-04-25T10:11:00;96404.53;;;34.72;17.09
19596;BME280;9945;46.010;8.946;2023-04-25T10:13:29;96406.50;;;37.79;14.71
19596;BME280;9945;46.010;8.946;2023-04-25T10:15:57;96408.06;;;40.45;14.24
19596;BME280;9945;46.010;8.946;2023-04-25T10:18:25;96402.91;;;41.70;11.94
19596;BME280;9945;46.010;8.946;2023-04-25T10:20:54;96402.16;;;42.56;11.80
19596;BME280;9945;46.010;8.946;2023-04-25T10:23:22;96411.59;;;43.66;10.78
19596;BME280;9945;46.010;8.946;2023-04-25T10:25:51;96413.47;;;44.09;9.99
19596;BME280;9945;46.010;8.946;2023-04-25T10:28:20;96411.50;;;42.44;10.81
19596;BME280;9945;46.010;8.946;2023-04-25T10:31:07;96400.19;;;38.55;13.02
19596;BME280;9945;46.010;8.946;2023-04-25T10:33:35;96399.47;;;35.72;14.91
19596;BME280;9945;46.010;8.946;2023-04-25T10:36:10;96391.66;;;35.15;15.05
19596;BME280;9945;46.010;8.946;2023-04-25T10:38:38;96397.84;;;34.86;15.86
19596;BME280;9945;46.010;8.946;2023-04-25T10:41:08;96387.75;;;32.74;17.63
19596;BME280;9945;46.010;8.946;2023-04-25T10:43:37;96398.38;;;31.21;17.95
19596;BME280;9945;46.010;8.946;2023-04-25T10:46:17;96397.34;;;30.01;19.13
19596;BME280;9945;46.010;8.946;2023-04-25T10:48:49;96394.41;;;28.44;20.35
19596;BME280;9945;46.010;8.946;2023-04-25T10:51:19;96391.63;;;26.92;20.84
19596;BME280;9945;46.010;8.946;2023-04-25T10:53:46;96395.16;;;28.55;19.39
19596;BME280;9945;46.010;8.946;2023-04-25T10:56:18;96404.00;;;31.38;16.98
19596;BME280;9945;46.010;8.946;2023-04-25T10:58:47;96407.56;;;30.74;17.01
19596;BME280;9945;46.010;8.946;2023-04-25T11:01:14;96415.50;;;29.77;18.17
19596;BME280;9945;46.010;8.946;2023-04-25T11:03:42;96403.84;;;28.47;18.73
19596;BME280;9945;46.010;8.946;2023-04-25T11:06:22;96431.28;;;27.56;19.91
19596;BME280;9945;46.010;8.946;2023-04-25T11:08:50;96437.03;;;26.63;21.01
19596;BME280;9945;46.010;8.946;2023-04-25T11:11:19;96432.53;;;25.71;22.00
19596;BME280;9945;46.010;8.946;2023-04-25T11:13:47;96447.50;;;24.72;23.23
19596;BME280;9945;46.010;8.946;2023-04-25T11:16:15;96457.75;;;23.34;25.37
19596;BME280;9945;46.010;8.946;2023-04-25T11:18:42;96464.47;;;22.82;26.26
19596;BME280;9945;46.010;8.946;2023-04-25T11:21:09;96467.44;;;22.07;27.60
19596;BME280;9945;46.010;8.946;2023-04-25T11:23:36;96454.34;;;21.65;28.69
19596;BME280;9945;46.010;8.946;2023-04-25T11:26:04;96451.97;;;21.80;28.96
19596;BME280;9945;46.010;8.946;2023-04-25T11:28:32;96435.41;;;25.54;25.10
19596;BME280;9945;46.010;8.946;2023-04-25T11:30:59;96448.91;;;29.04;22.21
19596;BME280;9945;46.010;8.946;2023-04-25T11:33:26;96448.53;;;31.46;18.96
19596;BME280;9945;46.010;8.946;2023-04-25T11:35:53;96456.19;;;33.86;16.71
19596;BME280;9945;46.010;8.946;2023-04-25T11:38:21;96450.75;;;35.70;16.57
19596;BME280;9945;46.010;8.946;2023-04-25T11:40:52;96446.59;;;36.73;14.62
19596;BME280;9945;46.010;8.946;2023-04-25T11:43:20;96456.31;;;37.16;13.54
19596;BME280;9945;46.010;8.946;2023-04-25T11:46:58;96445.63;;;36.90;13.75
19596;BME280;9945;46.010;8.946;2023-04-25T11:49:30;96446.38;;;36.36;14.46
19596;BME280;9945;46.010;8.946;2023-04-25T11:51:57;96447.59;;;35.97;14.52
19596;BME280;9945;46.010;8.946;2023-04-25T11:54:24;96439.22;;;33.89;15.52
19596;BME280;9945;46.010;8.946;2023-04-25T11:56:51;96418.94;;;33.47;15.60
19596;BME280;9945;46.010;8.946;2023-04-25T11:59:23;96428.53;;;33.53;16.79
19596;BME280;9945;46.010;8.946;2023-04-25T12:01:51;96422.53;;;32.72;18.08
19596;BME280;9945;46.010;8.946;2023-04-25T12:04:21;96408.63;;;32.15;16.41
19596;BME280;9945;46.010;8.946;2023-04-25T12:06:50;96408.63;;;31.05;18.33
19596;BME280;9945;46.010;8.946;2023-04-25T12:09:18;96413.47;;;30.25;20.15
19596;BME280;9945;46.010;8.946;2023-04-25T12:11:48;96400.34;;;29.33;19.11
19596;BME280;9945;46.010;8.946;2023-04-25T12:14:24;96401.44;;;28.74;21.69
19596;BME280;9945;46.010;8.946;2023-04-25T12:16:54;96394.59;;;28.24;20.06
19596;BME280;9945;46.010;8.946;2023-04-25T12:19:22;96386.88;;;27.53;19.70
19596;BME280;9945;46.010;8.946;2023-04-25T12:21:50;96376.81;;;26.99;20.26
19596;BME280;9945;46.010;8.946;2023-04-25T12:24:18;96388.59;;;27.19;21.32
19596;BME280;9945;46.010;8.946;2023-04-25T12:26:50;96400.97;;;27.20;20.57
19596;BME280;9945;46.010;8.946;2023-04-25T12:29:21;96393.50;;;26.86;20.04
19596;BME280;9945;46.010;8.946;2023-04-25T12:31:49;96395.41;;;26.50;20.94
19596;BME280;9945;46.010;8.946;2023-04-25T12:34:17;96385.44;;;26.46;21.29
19596;BME280;9945;46.010;8.946;2023-04-25T12:36:45;96383.03;;;26.29;21.09
19596;BME280;9945;46.010;8.946;2023-04-25T12:39:15;96373.88;;;25.94;21.11
19596;BME280;9945;46.010;8.946;2023-04-25T12:41:43;96374.69;;;26.00;21.43
19596;BME280;9945;46.010;8.946;2023-04-25T12:44:10;96369.78;;;25.67;21.44
19596;BME280;9945;46.010;8.946;2023-04-25T12:46:37;96370.34;;;25.69;21.31
19596;BME280;9945;46.010;8.946;2023-04-25T12:49:04;96363.91;;;25.07;20.89
19596;BME280;9945;46.010;8.946;2023-04-25T12:51:32;96363.19;;;24.85;22.50
19596;BME280;9945;46.010;8.946;2023-04-25T12:54:02;96365.03;;;24.74;22.20
19596;BME280;9945;46.010;8.946;2023-04-25T12:56:29;96371.53;;;24.88;21.69
19596;BME280;9945;46.010;8.946;2023-04-25T12:58:57;96359.38;;;24.71;21.32
19596;BME280;9945;46.010;8.946;2023-04-25T13:01:24;96352.47;;;24.80;23.30
19596;BME280;9945;46.010;8.946;2023-04-25T13:03:52;96368.16;;;24.61;21.10
19596;BME280;9945;46.010;8.946;2023-04-25T13:06:20;96352.63;;;24.63;20.71
19596;BME280;9945;46.010;8.946;2023-04-25T13:08:47;96356.16;;;24.32;22.25
19596;BME280;9945;46.010;8.946;2023-04-25T13:11:15;96363.81;;;24.55;22.26
19596;BME280;9945;46.010;8.946;2023-04-25T13:13:43;96356.63;;;24.61;21.21